createdAt,value
2017-11-21T00:00:39.344Z,0.00
2017-11-21T00:01:39.307Z,0.00
2017-11-21T00:02:39.277Z,0.00
2017-11-21T00:03:39.244Z,0.00
2017-11-21T00:04:39.214Z,0.00
2017-11-21T00:05:39.200Z,0.00
2017-11-21T00:06:39.157Z,0.00
2017-11-21T00:07:39.122Z,0.00
2017-11-21T00:08:39.094Z,0.00
2017-11-21T00:09:39.060Z,0.00
2017-11-21T00:10:39.036Z,0.00
2017-11-21T00:11:39.030Z,0.00
2017-11-21T00:12:38.982Z,0.00
2017-11-21T00:13:38.962Z,0.00
2017-11-21T00:14:39.166Z,0.00
2017-11-21T00:15:38.890Z,0.00
2017-11-21T00:16:38.855Z,0.00
2017-11-21T00:17:38.828Z,0.00
2017-11-21T00:18:38.802Z,0.00
2017-11-21T00:19:38.763Z,0.00
2017-11-21T00:20:38.989Z,0.00
2017-11-21T00:21:38.703Z,0.00
2017-11-21T00:22:38.677Z,0.00
2017-11-21T00:23:38.646Z,0.00
2017-11-21T00:24:38.619Z,0.00
2017-11-21T00:25:38.581Z,0.00
2017-11-21T00:26:38.806Z,0.00
2017-11-21T00:27:38.532Z,0.00
2017-11-21T00:28:38.503Z,0.00
2017-11-21T00:29:38.469Z,0.00
2017-11-21T00:30:38.439Z,0.00
2017-11-21T00:31:38.408Z,0.00
2017-11-21T00:32:38.673Z,0.00
2017-11-21T00:33:38.349Z,0.00
2017-11-21T00:34:38.324Z,0.00
2017-11-21T00:35:38.282Z,0.00
2017-11-21T00:36:38.260Z,0.00
2017-11-21T00:37:38.244Z,0.00
2017-11-21T00:38:38.547Z,0.00
2017-11-21T00:39:38.167Z,0.00
2017-11-21T00:40:38.140Z,0.00
2017-11-21T00:41:38.104Z,0.00
2017-11-21T00:42:38.073Z,0.00
2017-11-21T00:43:38.054Z,0.00
2017-11-21T00:44:38.025Z,0.00
2017-11-21T00:45:37.997Z,0.00
2017-11-21T00:46:37.963Z,0.00
2017-11-21T00:47:37.925Z,0.00
2017-11-21T00:48:37.902Z,0.00
2017-11-21T00:49:37.868Z,0.00
2017-11-21T00:50:37.852Z,0.00
2017-11-21T00:51:37.806Z,0.00
2017-11-21T00:52:37.780Z,0.00
2017-11-21T00:53:37.745Z,0.00
2017-11-21T00:54:37.713Z,0.00
2017-11-21T00:55:37.690Z,0.00
2017-11-21T00:56:37.915Z,0.00
2017-11-21T00:57:37.626Z,0.00
2017-11-21T00:58:37.595Z,0.00
2017-11-21T00:59:37.568Z,0.00
2017-11-21T01:00:37.538Z,0.00
2017-11-21T01:01:37.520Z,0.00
2017-11-21T01:02:37.744Z,0.00
2017-11-21T01:03:37.449Z,0.00
2017-11-21T01:04:37.429Z,0.00
2017-11-21T01:05:37.392Z,0.00
2017-11-21T01:06:37.373Z,0.00
2017-11-21T01:07:37.331Z,0.00
2017-11-21T01:08:37.301Z,0.00
2017-11-21T01:09:37.271Z,0.00
2017-11-21T01:10:37.245Z,0.00
2017-11-21T01:11:37.211Z,0.00
2017-11-21T01:12:37.187Z,0.00
2017-11-21T01:13:37.151Z,0.00
2017-11-21T01:14:37.117Z,0.00
2017-11-21T01:15:37.104Z,0.00
2017-11-21T01:16:37.077Z,0.00
2017-11-21T01:17:37.034Z,0.00
2017-11-21T01:18:37.004Z,0.00
2017-11-21T01:19:36.975Z,0.00
2017-11-21T01:20:37.241Z,0.00
2017-11-21T01:21:36.916Z,0.00
2017-11-21T01:22:36.887Z,0.00
2017-11-21T01:23:36.850Z,0.00
2017-11-21T01:24:36.821Z,0.00
2017-11-21T01:25:36.792Z,0.00
2017-11-21T01:26:37.112Z,0.00
2017-11-21T01:27:36.735Z,0.00
2017-11-21T01:28:36.710Z,0.00
2017-11-21T01:29:36.672Z,0.00
2017-11-21T01:30:36.642Z,0.00
2017-11-21T01:31:36.619Z,0.00
2017-11-21T01:32:36.845Z,0.00
2017-11-21T01:33:36.560Z,0.00
2017-11-21T01:34:36.531Z,0.00
2017-11-21T01:35:36.490Z,0.00
2017-11-21T01:36:36.465Z,0.00
2017-11-21T01:37:36.438Z,0.00
2017-11-21T01:38:36.412Z,0.00
2017-11-21T01:39:36.373Z,0.00
2017-11-21T01:40:36.348Z,0.00
2017-11-21T01:41:36.315Z,0.00
2017-11-21T01:42:36.287Z,0.00
2017-11-21T01:43:36.263Z,0.00
2017-11-21T01:44:36.481Z,0.00
2017-11-21T01:45:36.203Z,0.00
2017-11-21T01:46:36.172Z,0.00
2017-11-21T01:47:36.147Z,0.00
2017-11-21T01:48:36.117Z,0.00
2017-11-21T01:49:36.091Z,0.00
2017-11-21T01:50:36.048Z,0.00
2017-11-21T01:51:36.024Z,0.00
2017-11-21T01:52:35.986Z,0.00
2017-11-21T01:53:35.968Z,0.00
2017-11-21T01:54:36.230Z,0.00
2017-11-21T01:55:35.907Z,0.00
2017-11-21T01:56:35.870Z,0.00
2017-11-21T01:57:35.839Z,0.00
2017-11-21T01:58:35.808Z,0.00
2017-11-21T01:59:35.782Z,0.00
2017-11-21T02:00:35.754Z,0.00
2017-11-21T02:01:35.731Z,0.00
2017-11-21T02:02:35.702Z,0.00
2017-11-21T02:03:35.669Z,0.00
2017-11-21T02:04:35.633Z,0.00
2017-11-21T02:05:35.624Z,0.00
2017-11-21T02:06:35.580Z,0.00
2017-11-21T02:07:35.542Z,0.00
2017-11-21T02:08:35.514Z,0.00
2017-11-21T02:09:35.492Z,0.00
2017-11-21T02:10:35.453Z,0.00
2017-11-21T02:11:35.427Z,0.00
2017-11-21T02:12:35.392Z,0.00
2017-11-21T02:13:35.362Z,0.00
2017-11-21T02:14:35.330Z,0.00
2017-11-21T02:15:35.306Z,0.00
2017-11-21T02:16:35.272Z,0.00
2017-11-21T02:17:35.245Z,0.00
2017-11-21T02:18:35.464Z,0.00
2017-11-21T02:19:35.183Z,0.00
2017-11-21T02:20:35.154Z,0.00
2017-11-21T02:21:35.122Z,0.00
2017-11-21T02:22:35.093Z,0.00
2017-11-21T02:23:35.075Z,0.00
2017-11-21T02:24:35.038Z,0.00
2017-11-21T02:25:35.004Z,0.00
2017-11-21T02:26:34.972Z,0.00
2017-11-21T02:27:34.948Z,0.00
2017-11-21T02:28:34.917Z,0.00
2017-11-21T02:29:34.888Z,0.00
2017-11-21T02:30:34.861Z,0.00
2017-11-21T02:31:34.825Z,0.00
2017-11-21T02:32:34.801Z,0.00
2017-11-21T02:33:34.767Z,0.00
2017-11-21T02:34:34.746Z,0.00
2017-11-21T02:35:34.706Z,0.00
2017-11-21T02:36:34.976Z,0.00
2017-11-21T02:37:34.661Z,0.00
2017-11-21T02:38:34.617Z,0.00
2017-11-21T02:39:34.593Z,0.00
2017-11-21T02:40:34.563Z,0.00
2017-11-21T02:41:34.526Z,0.00
2017-11-21T02:42:34.890Z,0.00
2017-11-21T02:43:34.469Z,0.00
2017-11-21T02:44:34.438Z,0.00
2017-11-21T02:45:34.409Z,0.00
2017-11-21T02:46:34.378Z,0.00
2017-11-21T02:47:34.353Z,0.00
2017-11-21T02:48:34.314Z,0.00
2017-11-21T02:49:34.301Z,0.00
2017-11-21T02:50:34.259Z,0.00
2017-11-21T02:51:34.235Z,0.00
2017-11-21T02:52:34.198Z,0.00
2017-11-21T02:53:34.172Z,0.00
2017-11-21T02:54:34.443Z,0.00
2017-11-21T02:55:34.108Z,0.00
2017-11-21T02:56:34.078Z,0.00
2017-11-21T02:57:34.042Z,0.00
2017-11-21T02:58:34.023Z,0.00
2017-11-21T02:59:34.001Z,0.00
2017-11-21T03:00:34.209Z,0.00
2017-11-21T03:01:33.933Z,0.00
2017-11-21T03:02:33.901Z,0.00
2017-11-21T03:03:33.864Z,0.00
2017-11-21T03:04:33.833Z,0.00
2017-11-21T03:05:33.808Z,0.00
2017-11-21T03:06:34.033Z,0.00
2017-11-21T03:07:33.753Z,0.00
2017-11-21T03:08:33.712Z,0.00
2017-11-21T03:09:33.688Z,0.00
2017-11-21T03:10:33.657Z,0.00
2017-11-21T03:11:33.630Z,0.00
2017-11-21T03:12:33.601Z,0.00
2017-11-21T03:13:33.568Z,0.00
2017-11-21T03:14:33.543Z,0.00
2017-11-21T03:15:33.511Z,0.00
2017-11-21T03:16:33.484Z,0.00
2017-11-21T03:17:33.449Z,0.00
2017-11-21T03:18:33.418Z,0.00
2017-11-21T03:19:33.389Z,0.00
2017-11-21T03:20:33.361Z,0.00
2017-11-21T03:21:33.329Z,0.00
2017-11-21T03:22:33.303Z,0.00
2017-11-21T03:23:33.568Z,0.00
2017-11-21T03:24:33.245Z,0.00
2017-11-21T03:25:33.209Z,0.00
2017-11-21T03:26:33.181Z,0.00
2017-11-21T03:27:33.148Z,0.00
2017-11-21T03:28:33.129Z,0.00
2017-11-21T03:29:33.092Z,0.00
2017-11-21T03:30:33.066Z,0.00
2017-11-21T03:31:33.036Z,0.00
2017-11-21T03:32:33.002Z,0.00
2017-11-21T03:33:32.967Z,0.00
2017-11-21T03:34:32.944Z,0.00
2017-11-21T03:35:32.909Z,0.00
2017-11-21T03:36:32.882Z,0.00
2017-11-21T03:37:32.864Z,0.00
2017-11-21T03:38:32.827Z,0.00
2017-11-21T03:39:32.797Z,0.00
2017-11-21T03:40:32.759Z,0.00
2017-11-21T03:41:33.030Z,0.00
2017-11-21T03:42:32.707Z,0.00
2017-11-21T03:43:32.673Z,0.00
2017-11-21T03:44:32.648Z,0.00
2017-11-21T03:45:32.612Z,0.00
2017-11-21T03:46:32.582Z,0.00
2017-11-21T03:47:32.551Z,0.00
2017-11-21T03:48:32.525Z,0.00
2017-11-21T03:49:32.504Z,0.00
2017-11-21T03:50:32.467Z,0.00
2017-11-21T03:51:32.438Z,0.00
2017-11-21T03:52:32.401Z,0.00
2017-11-21T03:53:32.677Z,0.00
2017-11-21T03:54:32.354Z,0.00
2017-11-21T03:55:32.327Z,0.00
2017-11-21T03:56:32.286Z,0.00
2017-11-21T03:57:32.253Z,0.00
2017-11-21T03:58:32.221Z,0.00
2017-11-21T03:59:32.206Z,0.00
2017-11-21T04:00:32.165Z,0.00
2017-11-21T04:01:32.131Z,0.00
2017-11-21T04:02:32.106Z,0.00
2017-11-21T04:03:32.079Z,0.00
2017-11-21T04:04:32.050Z,0.00
2017-11-21T04:05:32.024Z,0.00
2017-11-21T04:06:31.992Z,0.00
2017-11-21T04:07:31.971Z,0.00
2017-11-21T04:08:31.925Z,0.00
2017-11-21T04:09:31.900Z,0.00
2017-11-21T04:10:31.867Z,0.00
2017-11-21T04:11:31.838Z,0.00
2017-11-21T04:12:31.818Z,0.00
2017-11-21T04:13:31.782Z,0.00
2017-11-21T04:14:31.753Z,0.00
2017-11-21T04:15:31.723Z,0.00
2017-11-21T04:16:31.944Z,0.00
2017-11-21T04:17:31.663Z,0.00
2017-11-21T04:18:31.633Z,0.00
2017-11-21T04:19:31.600Z,0.00
2017-11-21T04:20:31.577Z,0.00
2017-11-21T04:21:31.544Z,0.00
2017-11-21T04:22:31.518Z,0.00
2017-11-21T04:23:31.482Z,0.00
2017-11-21T04:24:31.454Z,0.00
2017-11-21T04:25:31.422Z,0.00
2017-11-21T04:26:31.397Z,0.00
2017-11-21T04:27:31.366Z,0.00
2017-11-21T04:28:31.593Z,0.00
2017-11-21T04:29:31.318Z,0.00
2017-11-21T04:30:31.281Z,0.00
2017-11-21T04:31:31.246Z,0.00
2017-11-21T04:32:31.215Z,0.00
2017-11-21T04:33:31.190Z,0.00
2017-11-21T04:34:31.163Z,0.00
2017-11-21T04:35:31.130Z,0.00
2017-11-21T04:36:31.094Z,0.00
2017-11-21T04:37:31.062Z,0.00
2017-11-21T04:38:31.035Z,0.00
2017-11-21T04:39:31.013Z,0.00
2017-11-21T04:40:30.980Z,0.00
2017-11-21T04:41:30.947Z,0.00
2017-11-21T04:42:30.917Z,0.00
2017-11-21T04:43:30.897Z,0.00
2017-11-21T04:44:30.863Z,0.00
2017-11-21T04:45:31.132Z,0.00
2017-11-21T04:46:30.803Z,0.00
2017-11-21T04:47:30.767Z,0.00
2017-11-21T04:48:30.738Z,0.00
2017-11-21T04:49:30.714Z,0.00
2017-11-21T04:50:30.683Z,0.00
2017-11-21T04:51:30.955Z,0.00
2017-11-21T04:52:30.622Z,0.00
2017-11-21T04:53:30.595Z,0.00
2017-11-21T04:54:30.564Z,0.00
2017-11-21T04:55:30.533Z,0.00
2017-11-21T04:56:30.505Z,0.00
2017-11-21T04:57:30.470Z,0.00
2017-11-21T04:58:30.439Z,0.00
2017-11-21T04:59:30.416Z,0.00
2017-11-21T05:00:30.391Z,0.00
2017-11-21T05:01:30.359Z,0.00
2017-11-21T05:02:30.321Z,0.00
2017-11-21T05:03:30.291Z,0.00
2017-11-21T05:04:30.265Z,0.00
2017-11-21T05:05:30.238Z,0.00
2017-11-21T05:06:30.211Z,0.00
2017-11-21T05:07:30.175Z,0.00
2017-11-21T05:08:30.142Z,0.00
2017-11-21T05:09:30.667Z,0.00
2017-11-21T05:10:30.081Z,0.00
2017-11-21T05:11:30.057Z,0.00
2017-11-21T05:12:30.033Z,0.00
2017-11-21T05:13:29.992Z,0.00
2017-11-21T05:14:29.962Z,0.00
2017-11-21T05:15:29.940Z,0.00
2017-11-21T05:16:29.909Z,0.00
2017-11-21T05:17:29.881Z,0.00
2017-11-21T05:18:29.855Z,0.00
2017-11-21T05:19:29.816Z,0.00
2017-11-21T05:20:29.789Z,0.00
2017-11-21T05:21:29.756Z,0.00
2017-11-21T05:22:29.731Z,0.00
2017-11-21T05:23:29.701Z,0.00
2017-11-21T05:24:29.672Z,0.00
2017-11-21T05:25:29.639Z,0.00
2017-11-21T05:26:29.612Z,0.00
2017-11-21T05:27:29.586Z,0.00
2017-11-21T05:28:29.558Z,0.00
2017-11-21T05:29:29.516Z,0.00
2017-11-21T05:30:29.487Z,0.00
2017-11-21T05:31:29.472Z,0.00
2017-11-21T05:32:29.694Z,0.00
2017-11-21T05:33:29.404Z,0.00
2017-11-21T05:34:29.376Z,0.00
2017-11-21T05:35:29.343Z,0.00
2017-11-21T05:36:29.312Z,0.00
2017-11-21T05:37:29.311Z,0.00
2017-11-21T05:38:30.464Z,0.00
2017-11-21T05:39:29.240Z,0.00
2017-11-21T05:40:29.202Z,0.00
2017-11-21T05:41:29.169Z,0.00
2017-11-21T05:42:29.134Z,0.00
2017-11-21T05:43:29.116Z,0.00
2017-11-21T05:44:29.333Z,0.00
2017-11-21T05:45:29.057Z,0.00
2017-11-21T05:46:29.017Z,0.00
2017-11-21T05:47:28.992Z,0.00
2017-11-21T05:48:28.959Z,0.00
2017-11-21T05:49:28.928Z,0.00
2017-11-21T05:50:28.901Z,0.00
2017-11-21T05:51:28.865Z,0.00
2017-11-21T05:52:28.840Z,0.00
2017-11-21T05:53:28.825Z,0.00
2017-11-21T05:54:28.785Z,0.00
2017-11-21T05:55:28.748Z,0.00
2017-11-21T05:56:28.721Z,0.00
2017-11-21T05:57:28.689Z,0.00
2017-11-21T05:58:28.667Z,0.00
2017-11-21T05:59:28.634Z,0.00
2017-11-21T06:00:28.951Z,0.00
2017-11-21T06:01:28.574Z,0.00
2017-11-21T06:02:28.544Z,0.00
2017-11-21T06:03:28.518Z,0.00
2017-11-21T06:04:28.484Z,0.00
2017-11-21T06:05:28.455Z,0.00
2017-11-21T06:06:28.674Z,0.00
2017-11-21T06:07:28.393Z,0.00
2017-11-21T06:08:28.363Z,0.00
2017-11-21T06:09:28.332Z,0.00
2017-11-21T06:10:28.313Z,0.00
2017-11-21T06:11:28.270Z,0.00
2017-11-21T06:12:28.246Z,0.00
2017-11-21T06:13:28.218Z,0.00
2017-11-21T06:14:28.194Z,0.00
2017-11-21T06:15:28.169Z,0.00
2017-11-21T06:16:28.136Z,0.00
2017-11-21T06:17:28.098Z,0.00
2017-11-21T06:18:28.071Z,0.00
2017-11-21T06:19:28.043Z,0.00
2017-11-21T06:20:28.009Z,0.00
2017-11-21T06:21:27.977Z,0.00
2017-11-21T06:22:27.957Z,0.00
2017-11-21T06:23:27.921Z,0.00
2017-11-21T06:24:27.890Z,0.00
2017-11-21T06:25:27.874Z,0.00
2017-11-21T06:26:27.835Z,0.00
2017-11-21T06:27:27.801Z,0.00
2017-11-21T06:28:27.773Z,0.00
2017-11-21T06:29:27.742Z,0.00
2017-11-21T06:30:27.960Z,0.00
2017-11-21T06:31:27.684Z,0.00
2017-11-21T06:32:27.660Z,0.00
2017-11-21T06:33:27.629Z,0.00
2017-11-21T06:34:27.593Z,0.00
2017-11-21T06:35:27.571Z,0.00
2017-11-21T06:36:27.543Z,0.00
2017-11-21T06:37:27.510Z,0.00
2017-11-21T06:38:27.479Z,0.00
2017-11-21T06:39:27.447Z,0.00
2017-11-21T06:40:27.424Z,0.00
2017-11-21T06:41:27.390Z,0.00
2017-11-21T06:42:27.665Z,0.00
2017-11-21T06:43:27.331Z,0.00
2017-11-21T06:44:27.300Z,0.00
2017-11-21T06:45:27.269Z,0.00
2017-11-21T06:46:27.239Z,0.00
2017-11-21T06:47:27.209Z,5.63
2017-11-21T06:48:27.481Z,5.63
2017-11-21T06:49:27.157Z,5.63
2017-11-21T06:50:27.117Z,5.63
2017-11-21T06:51:27.114Z,5.63
2017-11-21T06:52:27.060Z,5.63
2017-11-21T06:53:27.032Z,5.63
2017-11-21T06:54:27.004Z,5.63
2017-11-21T06:55:26.970Z,5.63
2017-11-21T06:56:26.941Z,5.63
2017-11-21T06:57:26.911Z,11.25
2017-11-21T06:58:26.892Z,11.25
2017-11-21T06:59:26.854Z,11.25
2017-11-21T07:00:27.074Z,11.25
2017-11-21T07:01:26.793Z,11.25
2017-11-21T07:02:26.764Z,11.25
2017-11-21T07:03:26.736Z,11.25
2017-11-21T07:04:26.709Z,11.25
2017-11-21T07:05:26.675Z,16.88
2017-11-21T07:06:26.949Z,16.88
2017-11-21T07:07:26.621Z,16.88
2017-11-21T07:08:26.595Z,16.88
2017-11-21T07:09:26.575Z,16.88
2017-11-21T07:10:26.543Z,16.88
2017-11-21T07:11:26.498Z,16.88
2017-11-21T07:12:26.477Z,16.88
2017-11-21T07:13:26.443Z,22.50
2017-11-21T07:14:26.412Z,22.50
2017-11-21T07:15:26.377Z,22.50
2017-11-21T07:16:26.351Z,28.13
2017-11-21T07:17:26.330Z,28.13
2017-11-21T07:18:26.295Z,28.13
2017-11-21T07:19:26.269Z,28.13
2017-11-21T07:20:26.234Z,33.75
2017-11-21T07:21:26.198Z,28.13
2017-11-21T07:22:26.168Z,28.13
2017-11-21T07:23:26.146Z,33.75
2017-11-21T07:24:26.126Z,33.75
2017-11-21T07:25:26.090Z,33.75
2017-11-21T07:26:26.057Z,33.75
2017-11-21T07:27:26.024Z,39.38
2017-11-21T07:28:25.996Z,39.38
2017-11-21T07:29:25.985Z,45.00
2017-11-21T07:30:26.191Z,45.00
2017-11-21T07:31:25.903Z,50.63
2017-11-21T07:32:25.883Z,56.25
2017-11-21T07:33:25.851Z,56.25
2017-11-21T07:34:25.816Z,61.88
2017-11-21T07:35:25.788Z,67.50
2017-11-21T07:36:25.759Z,73.13
2017-11-21T07:37:25.724Z,84.38
2017-11-21T07:38:25.703Z,84.38
2017-11-21T07:39:25.674Z,95.63
2017-11-21T07:40:25.640Z,101.25
2017-11-21T07:41:25.628Z,95.63
2017-11-21T07:42:25.584Z,95.63
2017-11-21T07:43:25.560Z,95.63
2017-11-21T07:44:25.519Z,101.25
2017-11-21T07:45:25.497Z,101.25
2017-11-21T07:46:25.463Z,101.25
2017-11-21T07:47:25.433Z,112.50
2017-11-21T07:48:25.408Z,112.50
2017-11-21T07:49:25.376Z,118.13
2017-11-21T07:50:25.347Z,123.75
2017-11-21T07:51:25.316Z,129.38
2017-11-21T07:52:25.289Z,135.00
2017-11-21T07:53:25.256Z,140.63
2017-11-21T07:54:25.232Z,140.63
2017-11-21T07:55:25.202Z,140.63
2017-11-21T07:56:25.172Z,135.00
2017-11-21T07:57:25.141Z,135.00
2017-11-21T07:58:25.116Z,129.38
2017-11-21T07:59:25.081Z,123.75
2017-11-21T08:00:25.052Z,118.13
2017-11-21T08:01:25.027Z,123.75
2017-11-21T08:02:24.997Z,118.13
2017-11-21T08:03:24.960Z,118.13
2017-11-21T08:04:24.938Z,106.88
2017-11-21T08:05:24.923Z,106.88
2017-11-21T08:06:24.872Z,106.88
2017-11-21T08:07:24.846Z,101.25
2017-11-21T08:08:24.819Z,95.63
2017-11-21T08:09:24.783Z,95.63
2017-11-21T08:10:24.753Z,95.63
2017-11-21T08:11:24.724Z,101.25
2017-11-21T08:12:24.704Z,101.25
2017-11-21T08:13:24.670Z,101.25
2017-11-21T08:14:24.639Z,101.25
2017-11-21T08:15:24.618Z,101.25
2017-11-21T08:16:24.584Z,101.25
2017-11-21T08:17:24.553Z,106.88
2017-11-21T08:18:24.526Z,106.88
2017-11-21T08:19:24.491Z,112.50
2017-11-21T08:20:24.468Z,118.13
2017-11-21T08:21:24.443Z,123.75
2017-11-21T08:22:24.409Z,135.00
2017-11-21T08:23:24.678Z,140.63
2017-11-21T08:24:24.346Z,140.63
2017-11-21T08:25:24.322Z,135.00
2017-11-21T08:26:24.304Z,135.00
2017-11-21T08:27:24.259Z,135.00
2017-11-21T08:28:24.236Z,140.63
2017-11-21T08:29:24.457Z,135.00
2017-11-21T08:30:24.173Z,135.00
2017-11-21T08:31:24.145Z,135.00
2017-11-21T08:32:24.123Z,129.38
2017-11-21T08:33:24.088Z,123.75
2017-11-21T08:34:24.052Z,129.38
2017-11-21T08:35:24.129Z,129.38
2017-11-21T08:36:24.000Z,135.00
2017-11-21T08:37:23.972Z,146.25
2017-11-21T08:38:23.960Z,151.88
2017-11-21T08:39:23.912Z,157.50
2017-11-21T08:40:23.884Z,157.50
2017-11-21T08:41:23.863Z,163.13
2017-11-21T08:42:23.828Z,157.50
2017-11-21T08:43:23.798Z,151.88
2017-11-21T08:44:23.773Z,146.25
2017-11-21T08:45:23.739Z,157.50
2017-11-21T08:46:23.712Z,163.13
2017-11-21T08:47:23.676Z,163.13
2017-11-21T08:48:23.660Z,163.13
2017-11-21T08:49:23.619Z,168.75
2017-11-21T08:50:23.601Z,174.38
2017-11-21T08:51:23.570Z,185.63
2017-11-21T08:52:23.535Z,191.25
2017-11-21T08:53:23.807Z,196.88
2017-11-21T08:54:23.476Z,196.88
2017-11-21T08:55:23.445Z,191.25
2017-11-21T08:56:23.420Z,180.00
2017-11-21T08:57:23.386Z,180.00
2017-11-21T08:58:23.364Z,185.63
2017-11-21T08:59:23.329Z,191.25
2017-11-21T09:00:23.306Z,191.25
2017-11-21T09:01:23.272Z,196.88
2017-11-21T09:02:23.246Z,196.88
2017-11-21T09:03:23.224Z,202.50
2017-11-21T09:04:23.191Z,202.50
2017-11-21T09:05:23.157Z,208.13
2017-11-21T09:06:23.135Z,213.75
2017-11-21T09:07:23.104Z,219.38
2017-11-21T09:08:23.072Z,219.38
2017-11-21T09:09:23.042Z,219.38
2017-11-21T09:10:23.012Z,208.13
2017-11-21T09:11:22.987Z,202.50
2017-11-21T09:12:22.962Z,202.50
2017-11-21T09:13:22.927Z,202.50
2017-11-21T09:14:22.906Z,208.13
2017-11-21T09:15:22.874Z,208.13
2017-11-21T09:16:22.848Z,208.13
2017-11-21T09:17:22.837Z,219.38
2017-11-21T09:18:22.783Z,219.38
2017-11-21T09:19:22.755Z,219.38
2017-11-21T09:20:22.733Z,219.38
2017-11-21T09:21:22.697Z,241.88
2017-11-21T09:22:22.667Z,264.38
2017-11-21T09:23:22.940Z,281.25
2017-11-21T09:24:22.610Z,309.38
2017-11-21T09:25:22.584Z,326.25
2017-11-21T09:26:22.553Z,343.13
2017-11-21T09:27:22.529Z,326.25
2017-11-21T09:28:22.495Z,303.75
2017-11-21T09:29:22.717Z,298.13
2017-11-21T09:30:22.439Z,292.50
2017-11-21T09:31:22.410Z,281.25
2017-11-21T09:32:22.379Z,281.25
2017-11-21T09:33:22.349Z,292.50
2017-11-21T09:34:22.322Z,292.50
2017-11-21T09:35:22.292Z,298.13
2017-11-21T09:36:22.271Z,309.38
2017-11-21T09:37:22.244Z,315.00
2017-11-21T09:38:22.208Z,320.63
2017-11-21T09:39:22.186Z,326.25
2017-11-21T09:40:22.151Z,331.88
2017-11-21T09:41:22.222Z,320.63
2017-11-21T09:42:22.094Z,309.38
2017-11-21T09:43:22.067Z,320.63
2017-11-21T09:44:22.048Z,320.63
2017-11-21T09:45:22.011Z,309.38
2017-11-21T09:46:21.991Z,303.75
2017-11-21T09:47:21.951Z,298.13
2017-11-21T09:48:21.926Z,298.13
2017-11-21T09:49:21.898Z,309.38
2017-11-21T09:50:21.869Z,303.75
2017-11-21T09:51:21.847Z,298.13
2017-11-21T09:52:21.809Z,298.13
2017-11-21T09:53:21.779Z,309.38
2017-11-21T09:54:21.749Z,331.88
2017-11-21T09:55:21.722Z,348.75
2017-11-21T09:56:21.692Z,354.38
2017-11-21T09:57:21.670Z,376.88
2017-11-21T09:58:21.639Z,388.13
2017-11-21T09:59:21.610Z,405.00
2017-11-21T10:00:21.583Z,416.25
2017-11-21T10:01:21.546Z,416.25
2017-11-21T10:02:21.521Z,410.63
2017-11-21T10:03:21.844Z,399.38
2017-11-21T10:04:21.475Z,405.00
2017-11-21T10:05:21.439Z,416.25
2017-11-21T10:06:21.417Z,410.63
2017-11-21T10:07:21.386Z,399.38
2017-11-21T10:08:21.349Z,393.75
2017-11-21T10:09:22.126Z,382.50
2017-11-21T10:10:21.292Z,371.25
2017-11-21T10:11:21.271Z,360.00
2017-11-21T10:12:21.236Z,376.88
2017-11-21T10:13:21.211Z,393.75
2017-11-21T10:14:21.179Z,405.00
2017-11-21T10:15:21.170Z,433.13
2017-11-21T10:16:21.129Z,478.13
2017-11-21T10:17:21.093Z,511.88
2017-11-21T10:18:21.072Z,523.13
2017-11-21T10:19:21.036Z,540.00
2017-11-21T10:20:21.006Z,551.25
2017-11-21T10:21:20.982Z,568.13
2017-11-21T10:22:20.963Z,607.50
2017-11-21T10:23:20.934Z,646.88
2017-11-21T10:24:20.911Z,663.75
2017-11-21T10:25:20.874Z,658.13
2017-11-21T10:26:20.849Z,646.88
2017-11-21T10:27:20.820Z,635.63
2017-11-21T10:28:20.789Z,624.38
2017-11-21T10:29:20.759Z,624.38
2017-11-21T10:30:20.726Z,630.00
2017-11-21T10:31:20.703Z,618.75
2017-11-21T10:32:20.677Z,601.88
2017-11-21T10:33:20.647Z,579.38
2017-11-21T10:34:20.616Z,568.13
2017-11-21T10:35:20.586Z,523.13
2017-11-21T10:36:20.567Z,495.00
2017-11-21T10:37:20.544Z,489.38
2017-11-21T10:38:20.518Z,483.75
2017-11-21T10:39:20.488Z,461.25
2017-11-21T10:40:20.455Z,444.38
2017-11-21T10:41:20.421Z,433.13
2017-11-21T10:42:20.395Z,427.50
2017-11-21T10:43:20.378Z,450.00
2017-11-21T10:44:20.343Z,478.13
2017-11-21T10:45:20.319Z,489.38
2017-11-21T10:46:20.281Z,472.50
2017-11-21T10:47:20.264Z,455.63
2017-11-21T10:48:20.236Z,433.13
2017-11-21T10:49:20.200Z,405.00
2017-11-21T10:50:20.178Z,382.50
2017-11-21T10:51:20.156Z,382.50
2017-11-21T10:52:20.124Z,388.13
2017-11-21T10:53:20.094Z,393.75
2017-11-21T10:54:20.060Z,399.38
2017-11-21T10:55:20.032Z,399.38
2017-11-21T10:56:20.008Z,388.13
2017-11-21T10:57:19.987Z,382.50
2017-11-21T10:58:19.955Z,365.63
2017-11-21T10:59:19.928Z,354.38
2017-11-21T11:00:19.892Z,354.38
2017-11-21T11:01:19.866Z,343.13
2017-11-21T11:02:19.842Z,331.88
2017-11-21T11:03:19.815Z,343.13
2017-11-21T11:04:19.788Z,360.00
2017-11-21T11:05:19.752Z,371.25
2017-11-21T11:06:19.730Z,371.25
2017-11-21T11:07:19.705Z,360.00
2017-11-21T11:08:19.674Z,371.25
2017-11-21T11:09:19.639Z,388.13
2017-11-21T11:10:19.613Z,388.13
2017-11-21T11:11:19.596Z,399.38
2017-11-21T11:12:19.566Z,388.13
2017-11-21T11:13:19.533Z,371.25
2017-11-21T11:14:19.502Z,337.50
2017-11-21T11:15:19.471Z,303.75
2017-11-21T11:16:19.453Z,270.00
2017-11-21T11:17:19.428Z,264.38
2017-11-21T11:18:19.395Z,264.38
2017-11-21T11:19:19.368Z,264.38
2017-11-21T11:20:19.337Z,253.13
2017-11-21T11:21:19.306Z,236.25
2017-11-21T11:22:19.282Z,230.63
2017-11-21T11:23:19.250Z,230.63
2017-11-21T11:24:19.227Z,225.00
2017-11-21T11:25:19.193Z,213.75
2017-11-21T11:26:19.163Z,213.75
2017-11-21T11:27:19.139Z,213.75
2017-11-21T11:28:19.109Z,213.75
2017-11-21T11:29:19.088Z,219.38
2017-11-21T11:30:19.054Z,213.75
2017-11-21T11:31:19.029Z,208.13
2017-11-21T11:32:18.994Z,219.38
2017-11-21T11:33:18.974Z,225.00
2017-11-21T11:34:18.949Z,219.38
2017-11-21T11:35:18.918Z,236.25
2017-11-21T11:36:18.881Z,247.50
2017-11-21T11:37:18.857Z,247.50
2017-11-21T11:38:18.831Z,247.50
2017-11-21T11:39:18.801Z,247.50
2017-11-21T11:40:18.770Z,253.13
2017-11-21T11:41:18.744Z,264.38
2017-11-21T11:42:18.722Z,270.00
2017-11-21T11:43:18.684Z,264.38
2017-11-21T11:44:18.661Z,270.00
2017-11-21T11:45:18.639Z,281.25
2017-11-21T11:46:18.609Z,303.75
2017-11-21T11:47:18.578Z,320.63
2017-11-21T11:48:18.554Z,326.25
2017-11-21T11:49:18.773Z,337.50
2017-11-21T11:50:18.492Z,354.38
2017-11-21T11:51:18.466Z,354.38
2017-11-21T11:52:18.441Z,365.63
2017-11-21T11:53:18.406Z,354.38
2017-11-21T11:54:18.382Z,331.88
2017-11-21T11:55:18.347Z,326.25
2017-11-21T11:56:18.327Z,326.25
2017-11-21T11:57:18.288Z,337.50
2017-11-21T11:58:18.263Z,348.75
2017-11-21T11:59:18.243Z,365.63
2017-11-21T12:00:18.219Z,371.25
2017-11-21T12:01:18.388Z,365.63
2017-11-21T12:02:18.149Z,376.88
2017-11-21T12:03:18.130Z,354.38
2017-11-21T12:04:18.100Z,337.50
2017-11-21T12:05:18.069Z,343.13
2017-11-21T12:06:18.054Z,326.25
2017-11-21T12:07:18.106Z,303.75
2017-11-21T12:08:17.987Z,286.88
2017-11-21T12:09:17.962Z,292.50
2017-11-21T12:10:17.933Z,292.50
2017-11-21T12:11:17.895Z,292.50
2017-11-21T12:12:17.871Z,292.50
2017-11-21T12:13:17.838Z,298.13
2017-11-21T12:14:17.813Z,298.13
2017-11-21T12:15:17.792Z,309.38
2017-11-21T12:16:17.762Z,315.00
2017-11-21T12:17:17.730Z,331.88
2017-11-21T12:18:17.696Z,343.13
2017-11-21T12:19:17.933Z,337.50
2017-11-21T12:20:17.650Z,343.13
2017-11-21T12:21:17.620Z,365.63
2017-11-21T12:22:17.594Z,376.88
2017-11-21T12:23:17.569Z,343.13
2017-11-21T12:24:17.533Z,331.88
2017-11-21T12:25:17.608Z,343.13
2017-11-21T12:26:17.473Z,360.00
2017-11-21T12:27:17.460Z,360.00
2017-11-21T12:28:17.418Z,360.00
2017-11-21T12:29:17.400Z,360.00
2017-11-21T12:30:17.379Z,360.00
2017-11-21T12:31:17.681Z,365.63
2017-11-21T12:32:17.308Z,371.25
2017-11-21T12:33:17.289Z,388.13
2017-11-21T12:34:17.247Z,365.63
2017-11-21T12:35:17.223Z,360.00
2017-11-21T12:36:17.196Z,343.13
2017-11-21T12:37:17.264Z,326.25
2017-11-21T12:38:17.135Z,303.75
2017-11-21T12:39:17.109Z,315.00
2017-11-21T12:40:17.087Z,326.25
2017-11-21T12:41:17.059Z,331.88
2017-11-21T12:42:17.033Z,343.13
2017-11-21T12:43:17.002Z,337.50
2017-11-21T12:44:16.974Z,320.63
2017-11-21T12:45:16.957Z,326.25
2017-11-21T12:46:16.917Z,348.75
2017-11-21T12:47:16.883Z,354.38
2017-11-21T12:48:16.866Z,365.63
2017-11-21T12:49:16.838Z,343.13
2017-11-21T12:50:16.805Z,337.50
2017-11-21T12:51:16.778Z,360.00
2017-11-21T12:52:16.751Z,354.38
2017-11-21T12:53:16.723Z,360.00
2017-11-21T12:54:17.037Z,331.88
2017-11-21T12:55:16.665Z,275.63
2017-11-21T12:56:16.645Z,264.38